createdAt,value
2018-09-13T00:00:51.524Z,16.51
2018-09-13T00:01:51.755Z,16.50
2018-09-13T00:02:51.983Z,16.50
2018-09-13T00:03:52.214Z,16.53
2018-09-13T00:04:52.446Z,16.49
2018-09-13T00:05:52.736Z,16.43
2018-09-13T00:06:52.901Z,16.39
2018-09-13T00:07:53.128Z,16.47
2018-09-13T00:08:53.358Z,16.42
2018-09-13T00:09:53.612Z,16.38
2018-09-13T00:10:53.819Z,16.39
2018-09-13T00:11:54.046Z,16.32
2018-09-13T00:12:54.269Z,16.29
2018-09-13T00:13:54.500Z,16.32
2018-09-13T00:14:54.730Z,16.26
2018-09-13T00:15:54.959Z,16.29
2018-09-13T00:16:55.189Z,16.24
2018-09-13T00:17:55.418Z,16.32
2018-09-13T00:18:55.654Z,16.36
2018-09-13T00:19:55.872Z,16.31
2018-09-13T00:20:56.104Z,16.38
2018-09-13T00:21:56.335Z,16.43
2018-09-13T00:22:56.564Z,16.47
2018-09-13T00:23:56.795Z,16.36
2018-09-13T00:24:57.021Z,16.39
2018-09-13T00:25:57.251Z,16.43
2018-09-13T00:26:57.477Z,16.39
2018-09-13T00:27:57.703Z,16.36
2018-09-13T00:28:57.935Z,16.50
2018-09-13T00:29:58.161Z,16.31
2018-09-13T00:30:58.389Z,16.47
2018-09-13T00:31:58.614Z,16.50
2018-09-13T00:32:58.846Z,16.42
2018-09-13T00:33:59.072Z,16.41
2018-09-13T00:34:59.306Z,16.46
2018-09-13T00:35:59.528Z,16.46
2018-09-13T00:36:59.763Z,16.36
2018-09-13T00:37:59.985Z,16.35
2018-09-13T00:39:00.214Z,16.29
2018-09-13T00:40:00.442Z,16.21
2018-09-13T00:41:00.676Z,16.16
2018-09-13T00:42:00.900Z,16.21
2018-09-13T00:43:01.121Z,16.26
2018-09-13T00:44:01.384Z,16.24
2018-09-13T00:45:01.580Z,16.24
2018-09-13T00:46:01.810Z,16.24
2018-09-13T00:47:02.038Z,16.21
2018-09-13T00:48:02.267Z,16.09
2018-09-13T00:49:02.494Z,16.12
2018-09-13T00:50:02.723Z,16.17
2018-09-13T00:51:02.962Z,16.00
2018-09-13T00:52:03.183Z,16.01
2018-09-13T00:53:03.412Z,16.02
2018-09-13T00:54:03.639Z,16.12
2018-09-13T00:55:03.864Z,16.16
2018-09-13T00:56:04.089Z,16.12
2018-09-13T00:57:04.327Z,16.10
2018-09-13T00:58:04.560Z,16.16
2018-09-13T00:59:04.807Z,16.09
2018-09-13T01:00:05.023Z,16.15
2018-09-13T01:01:05.253Z,16.12
2018-09-13T01:02:05.473Z,16.10
2018-09-13T01:03:05.723Z,16.10
2018-09-13T01:04:05.926Z,16.10
2018-09-13T01:05:06.153Z,16.00
2018-09-13T01:06:06.381Z,16.09
2018-09-13T01:07:06.609Z,16.05
2018-09-13T01:08:06.841Z,16.15
2018-09-13T01:09:07.079Z,16.29
2018-09-13T01:10:07.291Z,16.15
2018-09-13T01:11:07.520Z,16.21
2018-09-13T01:12:07.747Z,16.35
2018-09-13T01:13:07.977Z,16.32
2018-09-13T01:14:09.143Z,16.39
2018-09-13T01:15:08.380Z,16.29
2018-09-13T01:16:08.610Z,16.31
2018-09-13T01:17:08.820Z,16.38
2018-09-13T01:18:09.048Z,16.33
2018-09-13T01:19:09.277Z,16.35
2018-09-13T01:20:09.507Z,16.33
2018-09-13T01:21:09.733Z,16.36
2018-09-13T01:22:09.962Z,16.35
2018-09-13T01:23:10.203Z,16.43
2018-09-13T01:24:10.424Z,16.43
2018-09-13T01:25:10.647Z,16.39
2018-09-13T01:26:10.875Z,16.43
2018-09-13T01:27:11.103Z,16.50
2018-09-13T01:28:11.333Z,16.50
2018-09-13T01:29:11.564Z,16.38
2018-09-13T01:30:11.791Z,16.33
2018-09-13T01:31:12.020Z,16.43
2018-09-13T01:32:12.249Z,16.43
2018-09-13T01:33:12.479Z,16.39
2018-09-13T01:34:12.708Z,16.41
2018-09-13T01:35:12.936Z,16.46
2018-09-13T01:36:13.161Z,16.33
2018-09-13T01:37:13.392Z,16.38
2018-09-13T01:38:13.620Z,16.46
2018-09-13T01:39:13.851Z,16.41
2018-09-13T01:40:14.077Z,16.41
2018-09-13T01:41:14.308Z,16.38
2018-09-13T01:42:14.535Z,16.46
2018-09-13T01:43:14.765Z,16.33
2018-09-13T01:44:14.995Z,16.41
2018-09-13T01:45:15.245Z,16.41
2018-09-13T01:46:15.473Z,16.41
2018-09-13T01:47:15.701Z,16.42
2018-09-13T01:48:15.928Z,16.39
2018-09-13T01:49:16.162Z,16.36
2018-09-13T01:50:16.389Z,16.43
2018-09-13T01:51:16.613Z,16.41
2018-09-13T01:52:16.846Z,16.47
2018-09-13T01:53:17.070Z,16.42
2018-09-13T01:54:17.306Z,16.41
2018-09-13T01:55:17.522Z,16.35
2018-09-13T01:56:17.757Z,16.41
2018-09-13T01:57:17.975Z,16.43
2018-09-13T01:58:18.207Z,16.43
2018-09-13T01:59:18.433Z,16.42
2018-09-13T02:00:18.652Z,16.39
2018-09-13T02:01:18.904Z,16.53
2018-09-13T02:02:19.128Z,16.46
2018-09-13T02:03:19.356Z,16.46
2018-09-13T02:04:19.584Z,16.43
2018-09-13T02:05:19.814Z,16.46
2018-09-13T02:06:20.041Z,16.43
2018-09-13T02:07:20.271Z,16.46
2018-09-13T02:08:20.500Z,16.54
2018-09-13T02:09:20.727Z,16.56
2018-09-13T02:10:20.957Z,16.58
2018-09-13T02:11:21.179Z,16.56
2018-09-13T02:12:21.406Z,16.60
2018-09-13T02:13:21.637Z,16.69
2018-09-13T02:14:21.866Z,16.58
2018-09-13T02:15:22.096Z,16.64
2018-09-13T02:16:22.324Z,16.65
2018-09-13T02:17:22.562Z,16.51
2018-09-13T02:18:22.778Z,16.76
2018-09-13T02:19:23.001Z,16.71
2018-09-13T02:20:23.237Z,16.74
2018-09-13T02:21:23.464Z,16.69
2018-09-13T02:22:23.693Z,16.69
2018-09-13T02:23:23.928Z,16.72
2018-09-13T02:24:24.152Z,16.64
2018-09-13T02:25:24.381Z,16.71
2018-09-13T02:26:24.610Z,16.69
2018-09-13T02:27:24.840Z,16.69
2018-09-13T02:28:25.068Z,16.78
2018-09-13T02:29:25.294Z,16.71
2018-09-13T02:30:25.526Z,16.74
2018-09-13T02:31:25.752Z,16.66
2018-09-13T02:32:25.975Z,16.72
2018-09-13T02:33:26.205Z,16.72
2018-09-13T02:34:26.445Z,16.76
2018-09-13T02:35:26.661Z,16.75
2018-09-13T02:36:26.891Z,16.74
2018-09-13T02:37:27.110Z,16.81
2018-09-13T02:38:27.335Z,16.71
2018-09-13T02:39:27.562Z,16.84
2018-09-13T02:40:27.792Z,16.75
2018-09-13T02:41:28.021Z,16.83
2018-09-13T02:42:28.244Z,16.89
2018-09-13T02:43:28.466Z,16.79
2018-09-13T02:44:28.701Z,16.86
2018-09-13T02:45:28.931Z,16.86
2018-09-13T02:46:29.159Z,17.04
2018-09-13T02:47:29.388Z,16.99
2018-09-13T02:48:29.628Z,17.02
2018-09-13T02:49:29.856Z,17.04
2018-09-13T02:50:30.074Z,17.04
2018-09-13T02:51:30.305Z,17.04
2018-09-13T02:52:30.536Z,16.99
2018-09-13T02:53:30.760Z,16.99
2018-09-13T02:54:30.989Z,16.96
2018-09-13T02:55:31.215Z,17.05
2018-09-13T02:56:31.441Z,17.05
2018-09-13T02:57:31.669Z,17.11
2018-09-13T02:58:31.893Z,17.08
2018-09-13T02:59:32.122Z,17.14
2018-09-13T03:00:32.359Z,17.02
2018-09-13T03:01:32.582Z,17.15
2018-09-13T03:02:32.810Z,17.16
2018-09-13T03:03:33.039Z,17.08
2018-09-13T03:04:33.272Z,17.08
2018-09-13T03:05:33.503Z,17.14
2018-09-13T03:06:33.729Z,17.05
2018-09-13T03:07:33.958Z,16.91
2018-09-13T03:08:34.185Z,16.99
2018-09-13T03:09:34.416Z,16.99
2018-09-13T03:10:34.647Z,17.01
2018-09-13T03:11:34.874Z,17.02
2018-09-13T03:12:35.109Z,17.09
2018-09-13T03:13:35.333Z,16.97
2018-09-13T03:14:35.563Z,16.94
2018-09-13T03:15:35.798Z,16.94
2018-09-13T03:16:36.023Z,16.99
2018-09-13T03:17:36.246Z,16.99
2018-09-13T03:18:36.478Z,17.04
2018-09-13T03:19:36.706Z,17.08
2018-09-13T03:20:36.936Z,16.99
2018-09-13T03:21:37.166Z,17.09
2018-09-13T03:22:37.395Z,17.09
2018-09-13T03:23:37.632Z,17.06
2018-09-13T03:24:37.857Z,17.08
2018-09-13T03:25:38.082Z,17.08
2018-09-13T03:26:38.313Z,17.06
2018-09-13T03:27:38.540Z,17.08
2018-09-13T03:28:38.769Z,17.05
2018-09-13T03:29:39.006Z,17.16
2018-09-13T03:30:39.226Z,17.12
2018-09-13T03:31:39.471Z,17.09
2018-09-13T03:32:39.689Z,17.11
2018-09-13T03:33:39.928Z,17.11
2018-09-13T03:34:40.170Z,17.12
2018-09-13T03:35:40.389Z,17.12
2018-09-13T03:36:40.724Z,17.20
2018-09-13T03:37:40.826Z,17.12
2018-09-13T03:38:41.055Z,17.01
2018-09-13T03:39:41.284Z,17.06
2018-09-13T03:40:41.515Z,16.99
2018-09-13T03:41:41.747Z,17.02
2018-09-13T03:42:41.975Z,16.97
2018-09-13T03:43:42.203Z,17.09
2018-09-13T03:44:42.431Z,17.08
2018-09-13T03:45:42.663Z,17.01
2018-09-13T03:46:42.895Z,16.91
2018-09-13T03:47:43.126Z,16.94
2018-09-13T03:48:43.355Z,16.93
2018-09-13T03:49:43.595Z,16.86
2018-09-13T03:50:43.819Z,16.90
2018-09-13T03:51:44.048Z,16.90
2018-09-13T03:52:44.287Z,16.96
2018-09-13T03:53:44.503Z,16.87
2018-09-13T03:54:44.731Z,16.84
2018-09-13T03:56:45.197Z,16.90
2018-09-13T03:57:45.427Z,16.91
2018-09-13T03:58:45.657Z,16.90
2018-09-13T03:59:45.886Z,16.96
2018-09-13T04:00:46.106Z,16.89
2018-09-13T04:01:46.330Z,16.84
2018-09-13T04:02:46.557Z,16.81
2018-09-13T04:03:46.800Z,16.87
2018-09-13T04:04:47.025Z,16.86
2018-09-13T04:05:47.260Z,16.90
2018-09-13T04:06:47.485Z,16.90
2018-09-13T04:07:47.716Z,16.93
2018-09-13T04:08:47.942Z,16.90
2018-09-13T04:09:48.176Z,16.90
2018-09-13T04:10:48.406Z,16.86
2018-09-13T04:11:48.632Z,16.86
2018-09-13T04:12:48.865Z,16.91
2018-09-13T04:13:49.089Z,16.97
2018-09-13T04:14:49.361Z,16.99
2018-09-13T04:15:49.552Z,17.05
2018-09-13T04:16:49.778Z,17.01
2018-09-13T04:17:50.012Z,17.06
2018-09-13T04:18:50.326Z,17.09
2018-09-13T04:19:50.465Z,17.01
2018-09-13T04:20:50.692Z,17.01
2018-09-13T04:21:50.922Z,17.11
2018-09-13T04:22:51.155Z,17.02
2018-09-13T04:23:51.378Z,16.96
2018-09-13T04:24:51.600Z,17.01
2018-09-13T04:25:51.833Z,16.87
2018-09-13T04:26:52.061Z,16.79
2018-09-13T04:27:52.290Z,16.93
2018-09-13T04:28:52.519Z,16.91
2018-09-13T04:29:52.752Z,16.93
2018-09-13T04:30:52.976Z,16.97
2018-09-13T04:31:53.204Z,16.96
2018-09-13T04:32:53.447Z,16.89
2018-09-13T04:33:53.671Z,16.86
2018-09-13T04:34:53.895Z,16.90
2018-09-13T04:35:54.288Z,16.78
2018-09-13T04:36:54.353Z,16.87
2018-09-13T04:37:54.584Z,16.76
2018-09-13T04:38:54.814Z,16.84
2018-09-13T04:39:55.044Z,16.75
2018-09-13T04:40:55.262Z,16.79
2018-09-13T04:41:55.492Z,16.69
2018-09-13T04:42:55.721Z,16.76
2018-09-13T04:43:55.950Z,16.79
2018-09-13T04:44:56.201Z,16.84
2018-09-13T04:45:56.429Z,16.83
2018-09-13T04:46:56.654Z,16.89
2018-09-13T04:47:56.884Z,16.78
2018-09-13T04:48:57.162Z,16.71
2018-09-13T04:49:57.342Z,16.65
2018-09-13T04:50:57.570Z,16.66
2018-09-13T04:51:57.807Z,16.74
2018-09-13T04:52:58.027Z,16.60
2018-09-13T04:53:58.257Z,16.66
2018-09-13T04:54:58.492Z,16.75
2018-09-13T04:55:58.720Z,16.64
2018-09-13T04:56:58.948Z,16.56
2018-09-13T04:57:59.182Z,16.60
2018-09-13T04:58:59.405Z,16.66
2018-09-13T04:59:59.641Z,16.57
2018-09-13T05:00:59.857Z,16.71
2018-09-13T05:02:00.090Z,16.58
2018-09-13T05:03:00.314Z,16.64
2018-09-13T05:04:00.541Z,16.66
2018-09-13T05:05:00.769Z,16.61
2018-09-13T05:06:01.000Z,16.71
2018-09-13T05:07:01.227Z,16.57
2018-09-13T05:08:01.456Z,16.64
2018-09-13T05:09:01.678Z,16.51
2018-09-13T05:10:01.950Z,16.60
2018-09-13T05:11:02.135Z,16.56
2018-09-13T05:12:02.364Z,16.66
2018-09-13T05:13:02.594Z,16.61
2018-09-13T05:14:02.822Z,16.58
2018-09-13T05:15:03.051Z,16.68
2018-09-13T05:16:03.283Z,16.65
2018-09-13T05:17:03.516Z,16.61
2018-09-13T05:18:03.745Z,16.51
2018-09-13T05:19:03.976Z,16.65
2018-09-13T05:20:04.209Z,16.64
2018-09-13T05:21:04.435Z,16.60
2018-09-13T05:22:04.665Z,16.57
2018-09-13T05:23:04.896Z,16.61
2018-09-13T05:24:05.127Z,16.54
2018-09-13T05:25:05.355Z,16.69
2018-09-13T05:26:05.585Z,16.65
2018-09-13T05:27:05.814Z,16.61
2018-09-13T05:28:06.041Z,16.69
2018-09-13T05:29:06.273Z,16.71
2018-09-13T05:30:06.502Z,16.74
2018-09-13T05:31:06.732Z,16.65
2018-09-13T05:32:06.962Z,16.50
2018-09-13T05:33:07.199Z,16.65
2018-09-13T05:34:07.424Z,16.69
2018-09-13T05:35:07.653Z,16.60
2018-09-13T05:36:07.882Z,16.72
2018-09-13T05:37:08.113Z,16.54
2018-09-13T05:38:08.342Z,16.58
2018-09-13T05:39:08.572Z,16.65
2018-09-13T05:40:08.801Z,16.66
2018-09-13T05:41:09.025Z,16.71
2018-09-13T05:42:09.253Z,16.72
2018-09-13T05:43:09.481Z,16.69
2018-09-13T05:44:09.713Z,16.78
2018-09-13T05:45:09.937Z,16.65
2018-09-13T05:46:10.173Z,16.64
2018-09-13T05:47:10.403Z,16.66
2018-09-13T05:48:10.632Z,16.71
2018-09-13T05:49:10.861Z,16.86
2018-09-13T05:50:11.093Z,16.71
2018-09-13T05:51:11.357Z,16.83
2018-09-13T05:52:11.550Z,16.79
2018-09-13T05:53:11.784Z,16.78
2018-09-13T05:54:12.008Z,16.74
2018-09-13T05:55:12.233Z,16.74
2018-09-13T05:56:12.469Z,16.71
2018-09-13T05:57:12.696Z,16.83
2018-09-13T05:58:12.926Z,16.79
2018-09-13T05:59:13.150Z,16.83
2018-09-13T06:00:13.418Z,16.83
2018-09-13T06:01:13.666Z,16.76
2018-09-13T06:02:13.844Z,16.84
2018-09-13T06:03:14.074Z,16.94
2018-09-13T06:04:14.303Z,16.90
2018-09-13T06:05:14.532Z,16.91
2018-09-13T06:06:14.763Z,16.97
2018-09-13T06:07:14.999Z,16.87
2018-09-13T06:08:15.223Z,16.96
2018-09-13T06:09:15.453Z,16.97
2018-09-13T06:10:15.684Z,16.97
2018-09-13T06:11:15.915Z,17.09
2018-09-13T06:12:16.144Z,16.99
2018-09-13T06:13:16.374Z,17.04
2018-09-13T06:14:16.607Z,17.09
2018-09-13T06:15:16.840Z,17.09
2018-09-13T06:16:17.066Z,17.05
2018-09-13T06:17:17.293Z,17.04
2018-09-13T06:18:17.525Z,17.12
2018-09-13T06:19:17.751Z,16.97
2018-09-13T06:20:17.987Z,16.97
2018-09-13T06:21:18.207Z,16.97
2018-09-13T06:22:18.432Z,16.96
2018-09-13T06:23:18.664Z,16.99
2018-09-13T06:24:18.895Z,17.06
2018-09-13T06:25:19.116Z,17.01
2018-09-13T06:26:19.350Z,17.02
2018-09-13T06:27:19.578Z,17.12
2018-09-13T06:28:19.809Z,17.08
2018-09-13T06:29:20.047Z,17.06
2018-09-13T06:30:20.267Z,17.06
2018-09-13T06:31:20.497Z,17.01
2018-09-13T06:32:20.720Z,17.01
2018-09-13T06:33:20.952Z,17.01
2018-09-13T06:34:21.187Z,17.05
2018-09-13T06:35:21.413Z,16.97
2018-09-13T06:36:21.673Z,17.01
2018-09-13T06:37:21.872Z,17.02
2018-09-13T06:38:22.146Z,16.96
2018-09-13T06:39:22.337Z,17.09
2018-09-13T06:40:22.564Z,17.14
2018-09-13T06:41:22.792Z,17.16
2018-09-13T06:42:23.027Z,17.22
2018-09-13T06:43:23.252Z,17.23
2018-09-13T06:44:23.482Z,17.29
2018-09-13T06:45:23.717Z,17.30
2018-09-13T06:46:23.948Z,17.36
2018-09-13T06:47:24.179Z,17.20
2018-09-13T06:48:24.455Z,17.31
2018-09-13T06:49:24.633Z,17.22
2018-09-13T06:50:24.872Z,17.24
2018-09-13T06:51:25.092Z,17.24
2018-09-13T06:52:25.325Z,17.33
2018-09-13T06:53:25.562Z,17.27
2018-09-13T06:54:25.777Z,17.27
2018-09-13T06:55:26.009Z,17.26
2018-09-13T06:56:26.240Z,17.29
2018-09-13T06:57:26.468Z,17.36
2018-09-13T06:58:26.695Z,17.42
2018-09-13T06:59:26.923Z,17.45
2018-09-13T07:00:27.158Z,17.39
2018-09-13T07:01:27.381Z,17.52
2018-09-13T07:02:27.632Z,17.64
2018-09-13T07:03:27.841Z,17.57
2018-09-13T07:04:28.073Z,17.68
2018-09-13T07:05:28.301Z,17.71
2018-09-13T07:06:28.530Z,17.70
2018-09-13T07:07:28.763Z,17.80
2018-09-13T07:08:28.993Z,17.89
2018-09-13T07:09:29.224Z,17.86
2018-09-13T07:10:29.453Z,18.10
2018-09-13T07:11:29.683Z,18.04
2018-09-13T07:12:29.914Z,18.22
2018-09-13T07:13:30.143Z,18.22
2018-09-13T07:14:30.376Z,18.20
2018-09-13T07:15:30.605Z,18.19
2018-09-13T07:16:30.836Z,18.26
2018-09-13T07:17:31.070Z,18.41
2018-09-13T07:18:31.301Z,18.31
2018-09-13T07:19:31.523Z,18.45
2018-09-13T07:20:31.754Z,18.52
2018-09-13T07:21:31.994Z,18.50
2018-09-13T07:22:32.210Z,18.65
2018-09-13T07:23:32.497Z,18.65
2018-09-13T07:24:32.672Z,18.71
2018-09-13T07:25:32.904Z,18.78
2018-09-13T07:26:33.130Z,18.81
2018-09-13T07:27:33.361Z,18.83
2018-09-13T07:28:33.592Z,18.68
2018-09-13T07:29:33.821Z,18.68
2018-09-13T07:30:34.048Z,18.59
2018-09-13T07:31:34.280Z,18.60
2018-09-13T07:32:34.512Z,18.62
2018-09-13T07:33:34.745Z,18.63
2018-09-13T07:34:34.978Z,18.73
2018-09-13T07:35:35.209Z,18.75
2018-09-13T07:36:35.439Z,18.60
2018-09-13T07:37:35.667Z,18.68
2018-09-13T07:38:35.898Z,18.53
2018-09-13T07:39:36.123Z,18.50
2018-09-13T07:40:36.345Z,18.60
2018-09-13T07:41:36.572Z,18.75
2018-09-13T07:42:36.855Z,18.75
2018-09-13T07:43:37.034Z,18.73
2018-09-13T07:44:37.261Z,18.73
2018-09-13T07:45:37.494Z,18.92
2018-09-13T07:46:37.727Z,19.07
2018-09-13T07:47:37.954Z,19.00
2018-09-13T07:48:38.187Z,19.14
2018-09-13T07:49:38.499Z,19.22
2018-09-13T07:50:38.650Z,19.12
2018-09-13T07:51:38.874Z,19.12
2018-09-13T07:52:39.108Z,19.21
2018-09-13T07:53:39.336Z,19.12
2018-09-13T07:54:39.565Z,19.18
2018-09-13T07:55:39.849Z,19.24
2018-09-13T07:56:40.028Z,19.16
2018-09-13T07:57:40.259Z,19.24
2018-09-13T07:58:40.492Z,19.41
2018-09-13T07:59:40.721Z,19.40
2018-09-13T08:00:40.948Z,19.36
2018-09-13T08:01:41.186Z,19.56
2018-09-13T08:02:41.412Z,19.63
2018-09-13T08:03:41.643Z,19.63
2018-09-13T08:04:41.874Z,19.49
2018-09-13T08:05:42.103Z,19.54
2018-09-13T08:06:42.336Z,19.31
2018-09-13T08:07:42.570Z,19.30
2018-09-13T08:08:42.797Z,19.24
2018-09-13T08:09:43.028Z,19.34
2018-09-13T08:10:43.256Z,19.27
2018-09-13T08:11:43.529Z,19.36
2018-09-13T08:12:43.715Z,19.39
2018-09-13T08:13:43.950Z,19.44
2018-09-13T08:14:44.174Z,19.47
2018-09-13T08:15:44.410Z,19.52
2018-09-13T08:16:44.636Z,19.52
2018-09-13T08:17:44.867Z,19.22
2018-09-13T08:18:45.324Z,19.33
2018-09-13T08:19:45.326Z,19.40
2018-09-13T08:20:45.561Z,19.48
2018-09-13T08:21:45.842Z,19.55
2018-09-13T08:22:46.011Z,19.62
2018-09-13T08:23:46.244Z,19.55
2018-09-13T08:24:46.474Z,19.58
2018-09-13T08:25:46.715Z,19.51
2018-09-13T08:26:46.934Z,19.39
2018-09-13T08:27:47.169Z,19.51
2018-09-13T08:28:47.398Z,19.54
2018-09-13T08:29:47.624Z,19.48
2018-09-13T08:30:47.855Z,19.54
2018-09-13T08:31:48.085Z,19.51
2018-09-13T08:32:48.320Z,19.45
2018-09-13T08:33:48.547Z,19.51
2018-09-13T08:34:48.791Z,19.34
2018-09-13T08:35:49.010Z,19.39
2018-09-13T08:36:49.267Z,19.30
2018-09-13T08:37:49.474Z,19.41
2018-09-13T08:38:49.700Z,19.33
2018-09-13T08:39:49.961Z,19.44
2018-09-13T08:40:50.161Z,19.37
2018-09-13T08:41:50.394Z,19.40
2018-09-13T08:42:50.624Z,19.39
2018-09-13T08:43:50.853Z,19.41
2018-09-13T08:44:51.086Z,19.37
2018-09-13T08:45:51.316Z,19.27
2018-09-13T08:46:51.544Z,19.22
2018-09-13T08:47:51.777Z,19.21
2018-09-13T08:48:52.006Z,19.39
2018-09-13T08:49:52.237Z,19.37
2018-09-13T08:50:52.468Z,19.44
2018-09-13T08:51:52.737Z,19.39
2018-09-13T08:52:52.927Z,19.41
2018-09-13T08:53:53.164Z,19.47
2018-09-13T08:54:53.390Z,19.56
2018-09-13T08:55:53.623Z,19.64
2018-09-13T08:56:53.852Z,19.67
2018-09-13T08:57:54.088Z,19.59
2018-09-13T08:58:54.316Z,19.62
2018-09-13T08:59:54.547Z,19.63
2018-09-13T09:00:54.779Z,19.48
2018-09-13T09:01:55.009Z,19.59
2018-09-13T09:02:55.238Z,19.56
2018-09-13T09:03:55.470Z,19.71
2018-09-13T09:04:55.701Z,19.64
2018-09-13T09:05:55.947Z,19.55
2018-09-13T09:06:56.164Z,19.51
2018-09-13T09:07:56.395Z,19.45
2018-09-13T09:08:56.627Z,19.37
2018-09-13T09:09:56.860Z,19.54
2018-09-13T09:10:57.090Z,19.47
2018-09-13T09:11:57.331Z,19.56
2018-09-13T09:12:57.549Z,19.59
2018-09-13T09:13:57.781Z,19.67
2018-09-13T09:14:58.016Z,19.76
2018-09-13T09:15:58.240Z,19.64
2018-09-13T09:16:58.475Z,19.56
2018-09-13T09:17:58.704Z,19.63
2018-09-13T09:18:58.931Z,19.36
2018-09-13T09:19:59.164Z,19.39
2018-09-13T09:20:59.396Z,19.44
2018-09-13T09:21:59.631Z,19.55
2018-09-13T09:22:59.857Z,19.73
2018-09-13T09:24:00.102Z,19.71
2018-09-13T09:25:00.327Z,19.81
2018-09-13T09:26:00.557Z,19.74
2018-09-13T09:27:00.787Z,19.76
2018-09-13T09:28:01.017Z,19.70
2018-09-13T09:29:01.280Z,19.69
2018-09-13T09:30:01.477Z,19.82
2018-09-13T09:31:01.710Z,19.85
2018-09-13T09:32:01.946Z,19.77
2018-09-13T09:33:02.171Z,19.82
2018-09-13T09:34:02.404Z,19.82
2018-09-13T09:35:02.680Z,19.91
2018-09-13T09:36:02.865Z,20.02
2018-09-13T09:37:03.095Z,20.09
2018-09-13T09:38:03.326Z,20.14
2018-09-13T09:39:03.558Z,20.29
2018-09-13T09:40:03.791Z,20.51
2018-09-13T09:41:04.022Z,20.25
2018-09-13T09:42:04.252Z,20.22
2018-09-13T09:43:04.488Z,20.26
2018-09-13T09:44:04.724Z,20.29
2018-09-13T09:45:04.952Z,20.29
2018-09-13T09:46:05.183Z,20.34
2018-09-13T09:47:05.416Z,20.39
2018-09-13T09:48:05.695Z,20.34
2018-09-13T09:49:05.879Z,20.48
2018-09-13T09:50:06.160Z,20.56
2018-09-13T09:51:06.338Z,20.59
2018-09-13T09:52:06.636Z,20.81
2018-09-13T09:53:06.803Z,20.90
2018-09-13T09:54:07.036Z,20.95
2018-09-13T09:55:07.269Z,20.96
2018-09-13T09:56:07.501Z,21.07
2018-09-13T09:57:07.730Z,21.00
2018-09-13T09:58:07.959Z,20.96
2018-09-13T09:59:08.193Z,20.87
2018-09-13T10:00:08.424Z,20.95
2018-09-13T10:01:08.655Z,20.90
2018-09-13T10:02:08.888Z,21.02
2018-09-13T10:03:09.178Z,21.05
2018-09-13T10:04:09.352Z,21.02
2018-09-13T10:05:09.589Z,20.97
2018-09-13T10:06:09.818Z,20.85
2018-09-13T10:07:10.055Z,20.92
2018-09-13T10:08:10.283Z,20.90
2018-09-13T10:09:10.718Z,21.05
2018-09-13T10:10:10.797Z,21.15
2018-09-13T10:11:11.032Z,21.30
2018-09-13T10:12:11.263Z,21.15
2018-09-13T10:13:11.496Z,21.17
2018-09-13T10:14:11.755Z,21.37
2018-09-13T10:15:11.979Z,21.32
2018-09-13T10:16:12.235Z,21.30
2018-09-13T10:17:12.428Z,21.50
2018-09-13T10:18:12.662Z,21.58
2018-09-13T10:19:12.892Z,21.55
2018-09-13T10:20:13.126Z,21.46
2018-09-13T10:21:13.359Z,21.52
2018-09-13T10:22:13.591Z,21.62
2018-09-13T10:23:13.824Z,21.46
2018-09-13T10:24:14.058Z,21.48
2018-09-13T10:25:14.293Z,21.60
2018-09-13T10:26:14.524Z,21.58
2018-09-13T10:27:14.760Z,21.82
2018-09-13T10:28:14.992Z,21.75
2018-09-13T10:29:15.270Z,21.83
2018-09-13T10:30:15.460Z,21.82
2018-09-13T10:31:15.695Z,21.92
2018-09-13T10:32:15.926Z,22.00
2018-09-13T10:33:16.161Z,22.15
2018-09-13T10:34:16.392Z,22.15
2018-09-13T10:35:16.627Z,22.15
2018-09-13T10:36:16.858Z,22.18
2018-09-13T10:37:17.095Z,22.35
2018-09-13T10:38:17.326Z,22.43
2018-09-13T10:39:17.559Z,22.62
2018-09-13T10:40:17.796Z,22.63
2018-09-13T10:41:18.030Z,22.66
2018-09-13T10:42:18.266Z,22.63
2018-09-13T10:43:18.498Z,22.69
2018-09-13T10:44:18.731Z,22.78
2018-09-13T10:45:18.963Z,22.99
2018-09-13T10:46:19.199Z,23.05
2018-09-13T10:47:19.463Z,22.83
2018-09-13T10:48:19.668Z,22.65
2018-09-13T10:49:19.901Z,22.68
2018-09-13T10:50:20.165Z,22.50
2018-09-13T10:51:20.369Z,22.23
2018-09-13T10:52:20.694Z,22.13
2018-09-13T10:53:20.837Z,22.18
2018-09-13T10:54:21.091Z,21.99
2018-09-13T10:55:21.352Z,21.91
2018-09-13T10:56:21.537Z,21.98
2018-09-13T10:57:21.770Z,22.10
2018-09-13T10:58:22.004Z,22.22
2018-09-13T10:59:22.238Z,22.13
2018-09-13T11:00:22.473Z,22.10
2018-09-13T11:01:22.708Z,22.08
2018-09-13T11:02:22.943Z,22.11
2018-09-13T11:03:23.179Z,21.99
2018-09-13T11:04:23.439Z,22.07
2018-09-13T11:05:23.645Z,22.02
2018-09-13T11:06:23.881Z,21.91
2018-09-13T11:07:24.118Z,21.88
2018-09-13T11:08:24.346Z,21.95
2018-09-13T11:09:24.582Z,21.82
2018-09-13T11:10:24.838Z,21.77
2018-09-13T11:11:25.074Z,21.73
2018-09-13T11:12:25.280Z,21.73
2018-09-13T11:13:25.512Z,21.79
2018-09-13T11:14:25.748Z,21.70
2018-09-13T11:15:25.983Z,21.73
2018-09-13T11:16:26.217Z,21.77
2018-09-13T11:17:26.449Z,21.80
2018-09-13T11:18:26.684Z,21.95
2018-09-13T11:19:26.920Z,21.82
2018-09-13T11:20:27.153Z,21.83
2018-09-13T11:21:27.384Z,21.72
2018-09-13T11:22:27.619Z,21.64
2018-09-13T11:23:27.856Z,21.67
2018-09-13T11:24:28.088Z,21.52
2018-09-13T11:25:28.316Z,21.42
2018-09-13T11:26:28.550Z,21.42
2018-09-13T11:27:28.784Z,21.32
2018-09-13T11:28:29.017Z,21.36
2018-09-13T11:29:29.251Z,21.43
2018-09-13T11:30:29.520Z,21.36
2018-09-13T11:31:29.715Z,21.30
2018-09-13T11:32:29.949Z,21.36
2018-09-13T11:33:30.181Z,21.30
2018-09-13T11:34:30.417Z,21.25
2018-09-13T11:35:30.648Z,21.18
2018-09-13T11:36:30.879Z,21.17
2018-09-13T11:37:31.111Z,21.27
2018-09-13T11:38:31.376Z,21.30
2018-09-13T11:39:31.666Z,21.32
2018-09-13T11:40:31.982Z,21.36
2018-09-13T11:41:32.045Z,21.30
2018-09-13T11:42:32.278Z,21.37
2018-09-13T11:43:32.510Z,21.36
2018-09-13T11:44:32.744Z,21.35
2018-09-13T11:45:32.976Z,21.42
2018-09-13T11:46:33.214Z,21.27
2018-09-13T11:47:33.442Z,21.30
2018-09-13T11:48:33.673Z,21.30
2018-09-13T11:49:33.906Z,21.09
2018-09-13T11:50:34.136Z,20.95
2018-09-13T11:51:34.373Z,21.02
2018-09-13T11:52:34.605Z,20.90
2018-09-13T11:53:34.834Z,20.88
2018-09-13T11:54:35.068Z,20.95
2018-09-13T11:55:35.301Z,20.97
2018-09-13T11:56:35.532Z,21.06
2018-09-13T11:57:35.768Z,21.18
2018-09-13T11:58:36.000Z,21.24
2018-09-13T11:59:36.236Z,21.33
2018-09-13T12:00:36.468Z,21.50
2018-09-13T12:01:36.701Z,21.42
2018-09-13T12:02:36.935Z,21.50
2018-09-13T12:03:37.169Z,21.27
2018-09-13T12:04:37.407Z,21.24
2018-09-13T12:05:37.643Z,21.15
2018-09-13T12:06:37.865Z,21.12
2018-09-13T12:07:38.096Z,21.11
2018-09-13T12:08:38.328Z,21.09
2018-09-13T12:09:38.629Z,21.11
2018-09-13T12:10:38.799Z,21.17
2018-09-13T12:11:39.032Z,21.14
2018-09-13T12:12:39.262Z,21.21
2018-09-13T12:13:39.545Z,21.06
2018-09-13T12:14:39.727Z,21.07
2018-09-13T12:15:39.960Z,21.09
2018-09-13T12:16:40.193Z,21.11
2018-09-13T12:17:40.424Z,21.25
2018-09-13T12:18:40.659Z,21.33
2018-09-13T12:19:40.889Z,21.37
2018-09-13T12:20:41.122Z,21.52
2018-09-13T12:21:41.356Z,21.45
2018-09-13T12:22:41.595Z,21.39
2018-09-13T12:23:41.819Z,21.51
2018-09-13T12:24:42.051Z,21.54
2018-09-13T12:25:42.286Z,21.55
2018-09-13T12:26:42.518Z,21.40
2018-09-13T12:27:42.748Z,21.40
2018-09-13T12:28:42.981Z,21.50
2018-09-13T12:29:43.213Z,21.46
2018-09-13T12:30:43.446Z,21.57
2018-09-13T12:31:43.678Z,21.45
2018-09-13T12:32:43.940Z,21.54
2018-09-13T12:33:44.162Z,21.55
2018-09-13T12:34:44.376Z,21.66
2018-09-13T12:35:44.609Z,21.72
2018-09-13T12:36:44.845Z,21.75
2018-09-13T12:37:45.077Z,21.80
2018-09-13T12:38:45.312Z,21.89
2018-09-13T12:39:45.543Z,22.00
2018-09-13T12:40:45.776Z,22.00
2018-09-13T12:41:46.010Z,22.08
2018-09-13T12:42:46.242Z,22.13
2018-09-13T12:43:46.482Z,22.15
2018-09-13T12:44:46.708Z,22.17
2018-09-13T12:45:46.948Z,22.11
2018-09-13T12:46:47.165Z,22.14
2018-09-13T12:47:47.397Z,22.00
2018-09-13T12:48:47.631Z,22.14
2018-09-13T12:49:47.904Z,22.14
2018-09-13T12:50:48.098Z,22.26
2018-09-13T12:51:48.334Z,22.15
2018-09-13T12:52:48.562Z,21.95
2018-09-13T12:53:48.796Z,21.88
2018-09-13T12:54:49.027Z,21.82
2018-09-13T12:55:49.261Z,21.91
2018-09-13T12:56:49.566Z,22.11